Time;durP1;ratioP1;P1;durP2;ratioP2;P2;SDS_P1;SDS_P2;PMS_P1;PMS_P2;Temp;Humidity;BMP_temperature;BMP_pressure;BME280_temperature;BME280_humidity;BME280_pressure;Samples;Min_cycle;Max_cycle;Signal;HPM_P1;HPM_P2
2023/10/24 00:01:16;;;;;;;15.40;8.63;;;;;;;;;;5008379;28;20101;-48
2023/10/24 00:03:42;;;;;;;13.10;7.30;;;;;;;;;;5004146;28;20322;-48
2023/10/24 00:06:08;;;;;;;10.47;7.53;;;;;;;;;;4996743;28;20042;-47
2023/10/24 00:08:35;;;;;;;10.30;7.50;;;;;;;;;;5008934;28;20497;-49
2023/10/24 00:11:05;;;;;;;13.10;8.02;;;;;;;;;;4999944;28;20486;-48
2023/10/24 00:13:31;;;;;;;11.07;6.63;;;;;;;;;;5005520;28;20041;-50
2023/10/24 00:15:58;;;;;;;12.87;7.07;;;;;;;;;;5011177;28;20084;-48
2023/10/24 00:18:27;;;;;;;10.57;6.47;;;;;;;;;;5011728;28;20030;-47
2023/10/24 00:20:53;;;;;;;10.48;6.85;;;;;;;;;;5001320;28;20034;-47
2023/10/24 00:23:20;;;;;;;13.90;7.75;;;;;;;;;;5003782;28;20124;-48
2023/10/24 00:25:46;;;;;;;15.38;8.48;;;;;;;;;;5000038;28;20137;-47
2023/10/24 00:28:12;;;;;;;12.90;7.38;;;;;;;;;;5004246;28;20488;-47
2023/10/24 00:30:39;;;;;;;13.33;8.37;;;;;;;;;;5004553;28;20050;-47
2023/10/24 00:33:05;;;;;;;11.43;7.20;;;;;;;;;;5012535;28;20018;-47
2023/10/24 00:35:32;;;;;;;9.10;6.95;;;;;;;;;;5009600;28;20034;-51
2023/10/24 00:37:58;;;;;;;14.75;8.40;;;;;;;;;;4997134;28;20044;-46
2023/10/24 00:40:24;;;;;;;11.33;6.97;;;;;;;;;;5006321;28;20037;-46
2023/10/24 00:42:52;;;;;;;12.17;8.53;;;;;;;;;;5009644;28;20100;-47
2023/10/24 00:45:18;;;;;;;11.57;7.93;;;;;;;;;;5004548;28;20522;-47
2023/10/24 00:47:45;;;;;;;8.70;6.75;;;;;;;;;;4996855;28;20050;-48
2023/10/24 00:50:12;;;;;;;10.18;7.25;;;;;;;;;;4994458;28;20034;-47
2023/10/24 00:52:40;;;;;;;12.80;7.13;;;;;;;;;;5004839;28;20520;-47
2023/10/24 00:55:07;;;;;;;9.80;6.75;;;;;;;;;;5007788;28;20109;-47
2023/10/24 00:57:34;;;;;;;;;;;;;;;;;;5001496;28;20041;-49
2023/10/24 01:00:02;;;;;;;9.40;6.38;;;;;;;;;;5014191;28;19952;-47
2023/10/24 01:02:28;;;;;;;10.25;6.25;;;;;;;;;;5004316;28;20088;-47
2023/10/24 01:04:56;;;;;;;9.70;6.50;;;;;;;;;;4994270;28;20037;-46
2023/10/24 01:07:22;;;;;;;9.50;5.55;;;;;;;;;;4992436;28;20033;-47
2023/10/24 01:09:48;;;;;;;11.63;5.75;;;;;;;;;;4993030;28;20022;-47
2023/10/24 01:12:14;;;;;;;6.45;5.00;;;;;;;;;;5006478;28;20029;-47
2023/10/24 01:14:41;;;;;;;7.77;4.37;;;;;;;;;;5003996;28;20034;-48
2023/10/24 01:17:11;;;;;;;8.18;5.75;;;;;;;;;;4994075;28;20061;-46
2023/10/24 01:19:38;;;;;;;9.00;4.45;;;;;;;;;;4992862;28;20501;-47
2023/10/24 01:22:04;;;;;;;7.00;4.27;;;;;;;;;;4994098;28;20042;-47
2023/10/24 01:24:30;;;;;;;8.05;4.15;;;;;;;;;;4992725;28;20370;-50
2023/10/24 01:26:57;;;;;;;8.73;4.53;;;;;;;;;;4992896;28;20041;-51
2023/10/24 01:29:23;;;;;;;6.45;3.58;;;;;;;;;;4993886;28;20265;-47
2023/10/24 01:31:49;;;;;;;9.13;3.83;;;;;;;;;;5008339;28;20065;-47
2023/10/24 01:34:16;;;;;;;7.30;3.83;;;;;;;;;;5012778;28;20463;-47
2023/10/24 01:36:42;;;;;;;7.23;3.30;;;;;;;;;;5001303;28;20054;-47
2023/10/24 01:39:08;;;;;;;7.30;3.43;;;;;;;;;;5009777;28;20819;-49
2023/10/24 01:41:35;;;;;;;7.43;4.65;;;;;;;;;;5012817;28;20088;-50
2023/10/24 01:44:01;;;;;;;7.30;4.28;;;;;;;;;;5001834;28;20093;-48
2023/10/24 01:46:27;;;;;;;5.43;3.70;;;;;;;;;;5000300;28;20511;-47
2023/10/24 01:48:53;;;;;;;8.53;3.97;;;;;;;;;;4994737;28;20076;-47
2023/10/24 01:51:20;;;;;;;4.77;3.57;;;;;;;;;;5010107;28;20076;-46
2023/10/24 01:53:46;;;;;;;8.67;4.37;;;;;;;;;;5007704;28;20028;-47
2023/10/24 01:56:12;;;;;;;8.50;3.90;;;;;;;;;;4999337;28;20116;-47
2023/10/24 01:58:38;;;;;;;9.27;4.70;;;;;;;;;;5002211;28;20770;-50
2023/10/24 02:01:06;;;;;;;4.77;2.73;;;;;;;;;;5002172;28;20045;-48
2023/10/24 02:03:32;;;;;;;8.57;3.83;;;;;;;;;;4994490;28;20056;-47
2023/10/24 02:05:59;;;;;;;10.30;4.53;;;;;;;;;;4992483;28;20057;-47
2023/10/24 02:08:25;;;;;;;7.35;4.40;;;;;;;;;;4999637;28;20025;-49
2023/10/24 02:10:51;;;;;;;8.27;4.55;;;;;;;;;;5009597;28;20030;-47
2023/10/24 02:13:18;;;;;;;15.97;4.87;;;;;;;;;;5009877;28;20488;-47
2023/10/24 02:15:44;;;;;;;7.68;4.38;;;;;;;;;;4997782;28;20026;-47
2023/10/24 02:18:10;;;;;;;10.27;4.70;;;;;;;;;;5004761;28;20484;-47
2023/10/24 02:20:39;;;;;;;7.17;4.10;;;;;;;;;;4994326;28;20471;-49
2023/10/24 02:23:05;;;;;;;6.75;4.18;;;;;;;;;;4992738;28;20034;-49
2023/10/24 02:25:36;;;;;;;6.07;4.90;;;;;;;;;;4994399;28;20119;-49
2023/10/24 02:28:03;;;;;;;9.10;5.28;;;;;;;;;;5001390;28;20068;-48
2023/10/24 02:30:29;;;;;;;9.43;5.45;;;;;;;;;;4995935;28;20028;-49
2023/10/24 02:33:01;;;;;;;10.60;6.15;;;;;;;;;;5001446;28;20447;-49
2023/10/24 02:35:28;;;;;;;6.55;5.25;;;;;;;;;;4993043;28;20061;-50
2023/10/24 02:37:55;;;;;;;8.23;5.40;;;;;;;;;;4998008;28;20037;-47
2023/10/24 02:40:21;;;;;;;6.60;5.03;;;;;;;;;;5005189;28;20121;-48
2023/10/24 02:42:47;;;;;;;11.70;5.60;;;;;;;;;;5000202;28;20036;-49
2023/10/24 02:45:13;;;;;;;8.77;6.13;;;;;;;;;;4994174;28;20286;-53
2023/10/24 02:47:39;;;;;;;9.63;5.22;;;;;;;;;;5005202;28;20022;-52
2023/10/24 02:50:06;;;;;;;7.73;5.50;;;;;;;;;;5005523;28;20114;-51
2023/10/24 02:52:32;;;;;;;9.02;5.28;;;;;;;;;;4996348;28;20408;-48
2023/10/24 02:55:00;;;;;;;13.17;6.13;;;;;;;;;;5002564;28;20393;-47
2023/10/24 02:57:28;;;;;;;8.55;5.72;;;;;;;;;;4993336;28;20064;-54
2023/10/24 02:59:54;;;;;;;6.73;5.53;;;;;;;;;;5001733;28;20122;-49
2023/10/24 03:02:20;;;;;;;7.88;6.40;;;;;;;;;;4992238;28;20026;-49
2023/10/24 03:04:47;;;;;;;14.73;6.90;;;;;;;;;;5003232;28;20515;-49
2023/10/24 03:07:13;;;;;;;12.60;6.13;;;;;;;;;;5010310;28;20041;-50
2023/10/24 03:09:39;;;;;;;15.67;6.40;;;;;;;;;;5011852;28;20030;-49
2023/10/24 03:12:09;;;;;;;10.57;6.80;;;;;;;;;;5008413;28;20666;-50
2023/10/24 03:14:36;;;;;;;12.23;6.70;;;;;;;;;;5009867;28;20037;-47
2023/10/24 03:17:02;;;;;;;10.43;7.13;;;;;;;;;;4995778;28;20046;-51
2023/10/24 03:19:28;;;;;;;9.10;7.23;;;;;;;;;;4991596;28;20034;-50
2023/10/24 03:21:55;;;;;;;9.27;6.45;;;;;;;;;;4991606;28;20308;-47
2023/10/24 03:24:21;;;;;;;11.90;7.43;;;;;;;;;;4991886;28;20487;-47
2023/10/24 03:26:47;;;;;;;13.50;8.00;;;;;;;;;;4992083;28;20031;-50
2023/10/24 03:29:13;;;;;;;21.60;8.40;;;;;;;;;;4992565;28;20034;-47
2023/10/24 03:31:39;;;;;;;8.93;7.75;;;;;;;;;;5011338;28;20268;-50
2023/10/24 03:34:06;;;;;;;8.55;7.55;;;;;;;;;;5007952;28;20398;-50
2023/10/24 03:36:32;;;;;;;10.07;7.07;;;;;;;;;;4995920;28;20058;-50
2023/10/24 03:38:59;;;;;;;11.07;8.55;;;;;;;;;;5004195;28;20029;-49
2023/10/24 03:41:25;;;;;;;17.58;8.85;;;;;;;;;;5003537;28;20036;-51
2023/10/24 03:43:52;;;;;;;13.73;8.43;;;;;;;;;;4999825;28;20076;-48
2023/10/24 03:46:18;;;;;;;15.23;8.90;;;;;;;;;;5013012;28;20580;-46
2023/10/24 03:48:44;;;;;;;16.75;8.50;;;;;;;;;;5001248;28;20110;-46
2023/10/24 03:51:10;;;;;;;10.10;8.50;;;;;;;;;;4995914;28;20485;-46
2023/10/24 03:53:36;;;;;;;11.47;9.00;;;;;;;;;;5000046;28;20027;-47
2023/10/24 03:56:03;;;;;;;15.18;9.65;;;;;;;;;;4997831;28;20032;-47
2023/10/24 03:58:29;;;;;;;14.50;8.82;;;;;;;;;;4997395;28;20113;-48
2023/10/24 04:00:55;;;;;;;13.63;8.63;;;;;;;;;;5006056;28;20128;-50
2023/10/24 04:03:22;;;;;;;15.23;10.15;;;;;;;;;;5006710;28;20058;-49
2023/10/24 04:05:48;;;;;;;13.10;9.83;;;;;;;;;;5006834;28;20045;-50
2023/10/24 04:08:14;;;;;;;17.25;11.63;;;;;;;;;;5013652;28;20265;-47
2023/10/24 04:10:40;;;;;;;13.57;10.37;;;;;;;;;;5010947;28;20033;-46
2023/10/24 04:13:07;;;;;;;15.38;10.65;;;;;;;;;;5002527;28;20021;-49
2023/10/24 04:15:33;;;;;;;20.83;11.20;;;;;;;;;;5013755;28;20084;-47
2023/10/24 04:17:59;;;;;;;18.67;11.48;;;;;;;;;;5013156;28;20034;-48
2023/10/24 04:20:25;;;;;;;20.83;11.60;;;;;;;;;;5008332;28;20027;-49
2023/10/24 04:22:52;;;;;;;16.58;10.93;;;;;;;;;;5003368;28;20121;-49
2023/10/24 04:25:18;;;;;;;20.77;12.50;;;;;;;;;;5014739;28;20118;-47
2023/10/24 04:27:44;;;;;;;15.90;10.75;;;;;;;;;;5012916;28;20029;-50
2023/10/24 04:30:11;;;;;;;18.50;12.68;;;;;;;;;;5007485;28;20025;-47
2023/10/24 04:32:37;;;;;;;20.65;13.80;;;;;;;;;;5009198;28;20026;-48
2023/10/24 04:35:05;;;;;;;17.98;12.07;;;;;;;;;;5002116;28;20034;-48
2023/10/24 04:37:31;;;;;;;16.05;12.52;;;;;;;;;;5014396;28;20030;-45
2023/10/24 04:39:58;;;;;;;15.60;12.40;;;;;;;;;;5014525;28;20400;-45
2023/10/24 04:42:24;;;;;;;16.50;11.20;;;;;;;;;;5011396;28;20119;-50
2023/10/24 04:44:50;;;;;;;14.30;12.05;;;;;;;;;;4998641;28;20073;-47
2023/10/24 04:47:16;;;;;;;14.20;11.30;;;;;;;;;;4999700;28;20153;-47
2023/10/24 04:49:42;;;;;;;20.25;12.82;;;;;;;;;;5005609;28;20026;-46
2023/10/24 04:52:08;;;;;;;17.20;11.57;;;;;;;;;;5002832;28;20041;-47
2023/10/24 04:54:35;;;;;;;14.38;11.50;;;;;;;;;;4996659;28;20030;-48
2023/10/24 04:57:01;;;;;;;15.93;12.27;;;;;;;;;;4994174;28;20076;-46
2023/10/24 04:59:28;;;;;;;14.13;11.77;;;;;;;;;;5005356;28;20565;-46
2023/10/24 05:01:54;;;;;;;17.67;10.00;;;;;;;;;;4994516;28;20098;-46
2023/10/24 05:04:20;;;;;;;11.77;10.57;;;;;;;;;;5005993;28;20065;-46
2023/10/24 05:06:46;;;;;;;13.53;10.43;;;;;;;;;;5010014;28;20722;-47
2023/10/24 05:09:16;;;;;;;15.73;11.60;;;;;;;;;;4999073;28;20053;-47
2023/10/24 05:11:42;;;;;;;11.60;10.40;;;;;;;;;;5005370;28;20021;-51
2023/10/24 05:14:08;;;;;;;10.15;9.05;;;;;;;;;;4993131;28;20050;-48
2023/10/24 05:16:34;;;;;;;11.25;7.85;;;;;;;;;;4994280;28;20022;-46
2023/10/24 05:19:00;;;;;;;9.83;8.17;;;;;;;;;;5005275;28;20069;-50
2023/10/24 05:21:27;;;;;;;10.63;8.40;;;;;;;;;;4997664;28;20046;-50
2023/10/24 05:23:53;;;;;;;10.53;7.37;;;;;;;;;;5005986;28;20038;-46
2023/10/24 05:26:19;;;;;;;12.05;7.47;;;;;;;;;;4992724;28;20030;-52
2023/10/24 05:28:45;;;;;;;8.55;6.80;;;;;;;;;;4997454;28;20026;-47
2023/10/24 05:31:12;;;;;;;11.35;7.05;;;;;;;;;;5011850;28;20033;-48
2023/10/24 05:33:38;;;;;;;11.87;6.63;;;;;;;;;;5002825;28;20030;-48
2023/10/24 05:36:05;;;;;;;8.43;6.13;;;;;;;;;;5007513;28;20121;-48
2023/10/24 05:38:34;;;;;;;9.98;7.32;;;;;;;;;;5004751;28;20173;-49
2023/10/24 05:41:00;;;;;;;12.48;9.10;;;;;;;;;;4993469;28;20455;-46
2023/10/24 05:43:27;;;;;;;10.30;7.20;;;;;;;;;;5005190;28;20065;-46
2023/10/24 05:45:53;;;;;;;9.00;6.60;;;;;;;;;;5006673;28;20281;-48
2023/10/24 05:48:19;;;;;;;10.30;6.60;;;;;;;;;;5003585;28;20026;-48
2023/10/24 05:50:45;;;;;;;11.10;6.78;;;;;;;;;;4992695;28;20026;-48
2023/10/24 05:53:12;;;;;;;8.93;6.77;;;;;;;;;;5002845;28;20105;-48
2023/10/24 05:55:40;;;;;;;10.68;7.53;;;;;;;;;;4993324;28;20037;-47
2023/10/24 05:58:06;;;;;;;9.95;6.25;;;;;;;;;;5001823;28;20088;-49
2023/10/24 06:00:32;;;;;;;8.93;6.35;;;;;;;;;;5011788;28;20061;-48
2023/10/24 06:02:58;;;;;;;10.50;6.53;;;;;;;;;;5012721;28;20034;-47
2023/10/24 06:05:24;;;;;;;13.50;6.37;;;;;;;;;;5004659;28;20037;-47
2023/10/24 06:07:51;;;;;;;12.45;6.50;;;;;;;;;;5004421;28;20026;-50
2023/10/24 06:10:17;;;;;;;12.50;7.28;;;;;;;;;;4999272;28;20409;-46
2023/10/24 06:12:43;;;;;;;13.70;8.13;;;;;;;;;;5001650;28;20026;-47
2023/10/24 06:15:10;;;;;;;25.52;9.27;;;;;;;;;;4997460;28;20076;-48
2023/10/24 06:17:36;;;;;;;15.10;7.05;;;;;;;;;;4992885;28;20088;-46
2023/10/24 06:20:02;;;;;;;10.10;7.28;;;;;;;;;;4993052;28;20113;-46
2023/10/24 06:22:28;;;;;;;13.57;11.40;;;;;;;;;;4992814;28;20030;-47
2023/10/24 06:24:55;;;;;;;9.75;7.57;;;;;;;;;;4992811;28;20290;-48
2023/10/24 06:27:21;;;;;;;11.93;5.30;;;;;;;;;;4994326;28;20124;-46
2023/10/24 06:29:47;;;;;;;7.32;5.53;;;;;;;;;;5002411;28;20424;-48
2023/10/24 06:32:13;;;;;;;9.85;5.60;;;;;;;;;;4995086;28;20034;-48
2023/10/24 06:34:39;;;;;;;15.48;5.32;;;;;;;;;;4995644;28;20108;-46
2023/10/24 06:37:06;;;;;;;7.00;4.63;;;;;;;;;;5012241;28;20786;-47
2023/10/24 06:39:32;;;;;;;6.53;4.88;;;;;;;;;;4998022;28;20022;-46
2023/10/24 06:41:58;;;;;;;6.47;4.80;;;;;;;;;;4992741;28;20141;-46
2023/10/24 06:44:27;;;;;;;11.18;5.50;;;;;;;;;;4991226;28;20420;-48
2023/10/24 06:46:54;;;;;;;6.57;4.32;;;;;;;;;;4992550;28;20410;-47
2023/10/24 06:49:20;;;;;;;8.57;6.60;;;;;;;;;;4991395;28;20027;-46
2023/10/24 06:51:46;;;;;;;6.72;5.15;;;;;;;;;;4992861;28;20081;-47
2023/10/24 06:54:12;;;;;;;8.20;4.97;;;;;;;;;;5012111;28;20052;-46
2023/10/24 06:56:38;;;;;;;6.05;5.15;;;;;;;;;;5010192;28;20272;-47
2023/10/24 06:59:04;;;;;;;8.73;4.93;;;;;;;;;;4992898;28;20030;-47
2023/10/24 07:01:31;;;;;;;26.63;24.37;;;;;;;;;;5010830;28;20531;-47
2023/10/24 07:03:57;;;;;;;7.32;6.20;;;;;;;;;;5011904;28;20041;-47
2023/10/24 07:06:24;;;;;;;9.98;6.18;;;;;;;;;;5011244;28;20040;-46
2023/10/24 07:08:51;;;;;;;9.82;7.38;;;;;;;;;;5000387;28;20224;-47
2023/10/24 07:11:17;;;;;;;7.25;6.35;;;;;;;;;;4994301;28;20030;-47
2023/10/24 07:13:44;;;;;;;6.75;6.03;;;;;;;;;;4991094;28;20117;-46
2023/10/24 07:16:17;;;;;;;7.25;5.22;;;;;;;;;;4991023;28;20446;-51
2023/10/24 07:18:43;;;;;;;7.53;5.53;;;;;;;;;;4992121;28;20096;-48
2023/10/24 07:21:10;;;;;;;10.13;4.88;;;;;;;;;;4993266;28;20042;-48
2023/10/24 07:23:36;;;;;;;;;;;;;;;;;;4992630;28;20092;-48
2023/10/24 07:26:03;;;;;;;8.30;5.28;;;;;;;;;;4992035;28;19913;-49
2023/10/24 07:28:29;;;;;;;6.47;4.82;;;;;;;;;;5001442;28;20132;-43
2023/10/24 07:30:56;;;;;;;5.47;4.90;;;;;;;;;;5001474;28;20031;-44
2023/10/24 07:33:23;;;;;;;8.43;5.13;;;;;;;;;;4992061;28;20035;-44
2023/10/24 07:35:50;;;;;;;7.40;5.40;;;;;;;;;;4992128;28;20117;-44
2023/10/24 07:38:17;;;;;;;6.75;5.45;;;;;;;;;;4996879;28;20029;-43
2023/10/24 07:40:43;;;;;;;7.63;5.80;;;;;;;;;;5011694;28;20065;-44
2023/10/24 07:43:09;;;;;;;8.00;5.40;;;;;;;;;;5011407;28;20554;-42
2023/10/24 07:45:36;;;;;;;8.80;5.63;;;;;;;;;;5011510;28;20026;-43
2023/10/24 07:48:02;;;;;;;8.83;5.67;;;;;;;;;;5010446;28;20397;-42
2023/10/24 07:50:30;;;;;;;6.97;4.82;;;;;;;;;;5011777;28;20041;-42
2023/10/24 07:52:56;;;;;;;6.68;5.03;;;;;;;;;;5011560;28;20026;-44
2023/10/24 07:55:23;;;;;;;14.30;11.82;;;;;;;;;;5011536;28;20037;-46
2023/10/24 07:57:51;;;;;;;8.87;6.73;;;;;;;;;;5011231;28;20030;-47
2023/10/24 08:00:18;;;;;;;7.88;5.13;;;;;;;;;;4992537;28;20096;-49
2023/10/24 08:02:44;;;;;;;8.15;5.95;;;;;;;;;;4991854;28;20034;-47
2023/10/24 08:05:10;;;;;;;5.83;4.73;;;;;;;;;;4990444;28;20060;-46
2023/10/24 08:07:37;;;;;;;10.60;5.15;;;;;;;;;;4991722;28;20022;-46
2023/10/24 08:10:03;;;;;;;7.47;5.50;;;;;;;;;;4991848;28;20030;-46
2023/10/24 08:12:29;;;;;;;9.65;6.00;;;;;;;;;;4991902;28;20026;-47
2023/10/24 08:14:56;;;;;;;8.53;5.50;;;;;;;;;;4991590;28;20030;-48
2023/10/24 08:17:22;;;;;;;8.47;5.50;;;;;;;;;;4991660;28;20277;-47
2023/10/24 08:19:49;;;;;;;5.33;4.73;;;;;;;;;;4977851;28;20269;-46
2023/10/24 08:22:15;;;;;;;5.78;5.18;;;;;;;;;;4995203;28;20034;-46
2023/10/24 08:24:41;;;;;;;7.43;5.22;;;;;;;;;;4995264;28;20042;-46
2023/10/24 08:27:07;;;;;;;5.45;4.82;;;;;;;;;;4995090;28;20542;-46
2023/10/24 08:29:33;;;;;;;5.60;5.03;;;;;;;;;;4993693;28;20053;-46
2023/10/24 08:32:00;;;;;;;6.03;4.60;;;;;;;;;;4995067;28;20497;-47
2023/10/24 08:34:26;;;;;;;5.87;4.47;;;;;;;;;;4995081;28;20030;-47
2023/10/24 08:36:52;;;;;;;6.88;4.72;;;;;;;;;;4994832;28;20273;-45
2023/10/24 08:39:19;;;;;;;5.82;5.18;;;;;;;;;;4994995;28;20077;-45
2023/10/24 08:41:51;;;;;;;6.93;5.45;;;;;;;;;;4994885;28;20034;-46
2023/10/24 08:44:18;;;;;;;6.10;5.00;;;;;;;;;;4994700;28;20404;-46
2023/10/24 08:46:45;;;;;;;6.97;6.30;;;;;;;;;;4994489;28;20081;-46
2023/10/24 08:49:12;;;;;;;6.07;5.05;;;;;;;;;;4994744;28;20109;-45
2023/10/24 08:51:38;;;;;;;;;;;;;;;;;;4995155;28;20022;-44
2023/10/24 08:54:04;;;;;;;6.78;4.88;;;;;;;;;;4994594;28;20327;-44
2023/10/24 08:56:33;;;;;;;6.57;5.20;;;;;;;;;;4994478;28;20026;-44
2023/10/24 08:59:00;;;;;;;5.22;4.20;;;;;;;;;;4993268;28;20037;-45
2023/10/24 09:01:27;;;;;;;5.72;4.65;;;;;;;;;;4994562;28;20038;-48
2023/10/24 09:03:53;;;;;;;3.97;3.65;;;;;;;;;;4994157;28;20035;-46
2023/10/24 09:06:22;;;;;;;5.00;4.35;;;;;;;;;;4994223;28;20035;-47
2023/10/24 09:08:51;;;;;;;4.70;4.30;;;;;;;;;;4994372;28;20065;-46
2023/10/24 09:11:17;;;;;;;4.57;4.18;;;;;;;;;;4994239;28;20077;-46
2023/10/24 09:13:43;;;;;;;5.80;4.87;;;;;;;;;;4994124;28;20034;-45
2023/10/24 09:16:10;;;;;;;6.43;4.75;;;;;;;;;;4992756;28;20404;-47
2023/10/24 09:18:40;;;;;;;6.57;5.97;;;;;;;;;;4992121;28;20026;-46
2023/10/24 09:21:07;;;;;;;6.30;4.82;;;;;;;;;;4992764;28;20037;-45
2023/10/24 09:23:35;;;;;;;5.80;4.88;;;;;;;;;;4992633;28;20493;-47
2023/10/24 09:26:02;;;;;;;5.22;4.68;;;;;;;;;;4993790;28;20030;-47
2023/10/24 09:28:29;;;;;;;4.80;4.30;;;;;;;;;;4993467;28;20532;-47
2023/10/24 09:30:55;;;;;;;;;;;;;;;;;;4993104;28;20030;-47
2023/10/24 09:33:22;;;;;;;4.40;3.83;;;;;;;;;;4993829;28;20272;-48
2023/10/24 09:35:48;;;;;;;11.02;3.95;;;;;;;;;;4993913;28;20417;-46
2023/10/24 09:38:15;;;;;;;;;;;;;;;;;;4994176;28;20110;-46
2023/10/24 09:40:41;;;;;;;4.55;4.15;;;;;;;;;;4993685;28;20360;-46
2023/10/24 09:43:30;;;;;;;5.90;4.38;;;;;;;;;;4993651;28;20026;-47
2023/10/24 09:45:56;;;;;;;;;;;;;;;;;;4992609;28;20066;-46
2023/10/24 09:48:23;;;;;;;5.22;4.18;;;;;;;;;;4993652;28;19906;-46
2023/10/24 09:50:50;;;;;;;4.13;3.72;;;;;;;;;;4992232;28;20031;-47
2023/10/24 09:53:19;;;;;;;5.78;4.47;;;;;;;;;;4993349;28;20462;-45
2023/10/24 09:55:48;;;;;;;4.60;4.13;;;;;;;;;;4992196;28;20093;-47
2023/10/24 09:58:16;;;;;;;6.32;4.65;;;;;;;;;;4993122;28;20109;-47
2023/10/24 10:00:43;;;;;;;5.55;4.60;;;;;;;;;;4992084;28;20034;-46
2023/10/24 10:03:10;;;;;;;4.57;4.18;;;;;;;;;;4991840;28;20117;-46
2023/10/24 10:05:36;;;;;;;;;;;;;;;;;;4993683;28;20064;-47
2023/10/24 10:08:05;;;;;;;4.95;4.13;;;;;;;;;;4993110;28;19909;-47
2023/10/24 10:10:31;;;;;;;5.18;4.50;;;;;;;;;;4993187;28;20029;-47
2023/10/24 10:13:00;;;;;;;4.82;4.32;;;;;;;;;;4993053;28;20481;-46
2023/10/24 10:15:37;;;;;;;5.57;4.00;;;;;;;;;;4993063;28;20050;-46
2023/10/24 10:18:22;;;;;;;4.00;3.63;;;;;;;;;;4992170;28;20042;-47
2023/10/24 10:20:48;;;;;;;4.53;3.75;;;;;;;;;;4992309;28;20041;-45
2023/10/24 10:23:18;;;;;;;4.53;4.13;;;;;;;;;;4998775;28;20648;-46
2023/10/24 10:25:49;;;;;;;5.05;3.95;;;;;;;;;;4995198;28;20067;-47
2023/10/24 10:28:15;;;;;;;4.22;3.58;;;;;;;;;;4994647;28;20037;-46
2023/10/24 10:30:51;;;;;;;5.65;4.78;;;;;;;;;;4998294;28;20027;-46
2023/10/24 10:33:19;;;;;;;6.22;5.65;;;;;;;;;;5006602;28;20039;-47
2023/10/24 10:36:02;;;;;;;5.07;4.57;;;;;;;;;;4994414;28;20180;-47
2023/10/24 10:38:41;;;;;;;4.30;3.90;;;;;;;;;;4995232;28;20765;-46
2023/10/24 10:41:23;;;;;;;6.95;6.05;;;;;;;;;;5001713;28;20400;-46
2023/10/24 10:43:55;;;;;;;13.25;11.95;;;;;;;;;;4990851;28;20041;-46
2023/10/24 10:46:25;;;;;;;9.15;6.38;;;;;;;;;;4991414;28;20045;-48
2023/10/24 10:48:51;;;;;;;7.55;6.85;;;;;;;;;;4999410;28;20030;-47
2023/10/24 10:51:24;;;;;;;11.53;10.40;;;;;;;;;;4992282;28;20030;-46
2023/10/24 10:53:56;;;;;;;10.63;8.02;;;;;;;;;;4997543;28;20269;-49
2023/10/24 10:56:24;;;;;;;8.70;7.90;;;;;;;;;;5010176;28;20050;-47
2023/10/24 10:59:12;;;;;;;10.65;9.73;;;;;;;;;;5002947;28;20044;-50
2023/10/24 11:02:01;;;;;;;6.47;5.97;;;;;;;;;;5003448;28;20033;-46
2023/10/24 11:04:28;;;;;;;9.20;8.50;;;;;;;;;;5005086;28;20045;-47
2023/10/24 11:06:54;;;;;;;5.78;5.28;;;;;;;;;;5008177;28;20030;-47
2023/10/24 11:09:21;;;;;;;3.55;3.25;;;;;;;;;;4995092;28;20038;-47
2023/10/24 11:11:47;;;;;;;;;;;;;;;;;;4996596;28;20026;-48
2023/10/24 11:14:21;;;;;;;4.70;4.30;;;;;;;;;;5001505;28;20449;-48
2023/10/24 11:16:48;;;;;;;6.43;4.82;;;;;;;;;;4999221;28;20037;-49
2023/10/24 11:19:21;;;;;;;5.90;4.93;;;;;;;;;;5002532;28;20092;-48
2023/10/24 11:21:51;;;;;;;4.57;4.18;;;;;;;;;;4997668;28;20408;-48
2023/10/24 11:24:20;;;;;;;4.82;4.43;;;;;;;;;;4998097;28;20488;-47
2023/10/24 11:26:46;;;;;;;9.43;5.35;;;;;;;;;;5004155;28;20026;-47
2023/10/24 11:29:13;;;;;;;5.60;4.15;;;;;;;;;;4997111;28;20053;-45
2023/10/24 11:31:39;;;;;;;5.43;4.93;;;;;;;;;;4998766;28;20026;-47
2023/10/24 11:34:05;;;;;;;5.20;4.65;;;;;;;;;;4996699;28;20034;-48
2023/10/24 11:36:32;;;;;;;6.40;5.57;;;;;;;;;;5006528;28;20445;-47
2023/10/24 11:38:58;;;;;;;6.00;5.35;;;;;;;;;;5002362;28;20102;-46
2023/10/24 11:41:27;;;;;;;6.07;5.47;;;;;;;;;;4987169;28;20165;-48
2023/10/24 11:43:54;;;;;;;8.95;8.02;;;;;;;;;;5009643;28;20241;-49
2023/10/24 11:46:20;;;;;;;;;;;;;;;;;;5003658;28;20141;-47
2023/10/24 11:48:46;;;;;;;5.88;5.38;;;;;;;;;;4995494;28;19914;-46
2023/10/24 11:51:12;;;;;;;5.20;4.77;;;;;;;;;;5001332;28;20033;-48
2023/10/24 11:53:39;;;;;;;6.00;5.43;;;;;;;;;;5002024;28;20169;-46
2023/10/24 11:56:07;;;;;;;6.18;5.65;;;;;;;;;;5000767;28;20045;-47
2023/10/24 11:58:33;;;;;;;5.40;4.97;;;;;;;;;;4993502;28;20432;-48
2023/10/24 12:01:00;;;;;;;6.05;5.50;;;;;;;;;;5003715;28;20032;-46
2023/10/24 12:03:26;;;;;;;;;;;;;;;;;;5000061;28;20034;-48
2023/10/24 12:05:54;;;;;;;6.18;5.60;;;;;;;;;;5006081;28;19913;-47
2023/10/24 12:08:24;;;;;;;5.82;5.32;;;;;;;;;;5006962;28;20034;-49
2023/10/24 12:10:56;;;;;;;6.13;5.63;;;;;;;;;;5001958;28;20432;-48
2023/10/24 12:13:26;;;;;;;7.75;7.10;;;;;;;;;;4995093;28;20484;-47
2023/10/24 12:15:52;;;;;;;6.20;5.70;;;;;;;;;;4997290;28;20031;-48
2023/10/24 12:18:19;;;;;;;5.68;5.18;;;;;;;;;;4994396;28;20109;-47
2023/10/24 12:20:45;;;;;;;6.38;5.78;;;;;;;;;;5009856;28;20057;-47
2023/10/24 12:23:11;;;;;;;6.00;5.50;;;;;;;;;;4998232;28;20471;-48
2023/10/24 12:25:37;;;;;;;5.67;5.17;;;;;;;;;;5012587;28;20030;-48
2023/10/24 12:28:04;;;;;;;8.05;5.80;;;;;;;;;;4997509;28;20026;-49
2023/10/24 12:30:30;;;;;;;6.63;6.03;;;;;;;;;;4995429;28;20018;-46
2023/10/24 12:32:57;;;;;;;6.53;6.03;;;;;;;;;;5011363;28;20279;-47
2023/10/24 12:35:23;;;;;;;26.15;16.65;;;;;;;;;;5000058;28;20050;-48
2023/10/24 12:37:50;;;;;;;11.47;8.10;;;;;;;;;;5007436;28;20083;-46
2023/10/24 12:40:16;;;;;;;16.48;10.48;;;;;;;;;;5013147;28;20968;-47
2023/10/24 12:42:42;;;;;;;5.70;5.20;;;;;;;;;;5014528;28;20107;-48
2023/10/24 12:45:08;;;;;;;5.72;5.18;;;;;;;;;;5013698;28;20077;-48
2023/10/24 12:47:34;;;;;;;8.95;7.20;;;;;;;;;;4993661;28;20068;-46
2023/10/24 12:50:01;;;;;;;7.17;6.40;;;;;;;;;;4995897;28;20026;-46
2023/10/24 12:52:27;;;;;;;6.00;5.50;;;;;;;;;;4997856;28;20025;-50
2023/10/24 12:54:53;;;;;;;5.77;5.13;;;;;;;;;;4994607;28;20031;-51
2023/10/24 12:57:19;;;;;;;5.77;5.27;;;;;;;;;;5005061;28;20030;-50
2023/10/24 12:59:46;;;;;;;6.15;5.60;;;;;;;;;;5014441;28;20439;-47
2023/10/24 13:02:12;;;;;;;7.28;6.63;;;;;;;;;;4995336;28;20034;-46
2023/10/24 13:04:39;;;;;;;6.40;5.85;;;;;;;;;;4998239;28;20407;-47
2023/10/24 13:07:05;;;;;;;10.73;8.47;;;;;;;;;;4998790;28;20041;-47
2023/10/24 13:09:36;;;;;;;8.82;8.00;;;;;;;;;;4994324;28;20030;-47
2023/10/24 13:12:06;;;;;;;7.40;6.70;;;;;;;;;;5000858;28;20026;-48
2023/10/24 13:14:32;;;;;;;11.00;9.82;;;;;;;;;;5006017;28;20030;-47
2023/10/24 13:17:00;;;;;;;9.27;8.37;;;;;;;;;;5007305;28;20041;-47
2023/10/24 13:19:27;;;;;;;6.75;6.13;;;;;;;;;;5012661;28;20053;-47
2023/10/24 13:21:54;;;;;;;8.50;7.60;;;;;;;;;;4998410;28;20042;-47
2023/10/24 13:24:20;;;;;;;7.95;7.15;;;;;;;;;;4994714;28;20058;-46
2023/10/24 13:26:46;;;;;;;8.38;7.68;;;;;;;;;;5005505;28;20407;-47
2023/10/24 13:29:13;;;;;;;7.80;7.10;;;;;;;;;;4996883;28;20029;-48
2023/10/24 13:31:42;;;;;;;8.95;8.05;;;;;;;;;;5009211;28;20304;-48
2023/10/24 13:34:09;;;;;;;7.95;7.25;;;;;;;;;;4997675;28;20064;-49
2023/10/24 13:36:35;;;;;;;8.10;7.40;;;;;;;;;;4997529;28;20489;-47
2023/10/24 13:39:03;;;;;;;8.70;7.80;;;;;;;;;;4994741;28;20113;-46
2023/10/24 13:41:30;;;;;;;8.15;7.47;;;;;;;;;;5008991;28;20038;-47
2023/10/24 13:44:00;;;;;;;8.50;7.20;;;;;;;;;;4993554;28;20038;-47
2023/10/24 13:46:26;;;;;;;8.45;7.13;;;;;;;;;;4993334;28;20030;-49
2023/10/24 13:48:53;;;;;;;11.10;7.57;;;;;;;;;;4993529;28;20536;-47
2023/10/24 13:51:19;;;;;;;8.38;7.68;;;;;;;;;;4993594;28;20489;-48
2023/10/24 13:53:46;;;;;;;7.47;6.78;;;;;;;;;;4992267;28;20069;-49
2023/10/24 13:56:12;;;;;;;7.93;7.20;;;;;;;;;;4993446;28;20157;-47
2023/10/24 13:58:38;;;;;;;7.93;7.17;;;;;;;;;;4993552;28;20038;-48
2023/10/24 14:01:04;;;;;;;8.97;8.20;;;;;;;;;;4992297;28;20038;-48
2023/10/24 14:03:30;;;;;;;7.50;6.87;;;;;;;;;;4991915;28;20512;-48
2023/10/24 14:05:57;;;;;;;9.23;8.32;;;;;;;;;;4991957;28;20484;-47
2023/10/24 14:08:24;;;;;;;9.70;8.77;;;;;;;;;;4993416;28;20022;-47
2023/10/24 14:10:50;;;;;;;;;;;;;;;;;;4993712;28;20022;-48
2023/10/24 14:13:17;;;;;;;8.85;8.07;;;;;;;;;;4991914;28;19905;-47
2023/10/24 14:15:43;;;;;;;10.50;9.40;;;;;;;;;;4992129;28;20481;-48
2023/10/24 14:18:09;;;;;;;10.13;9.23;;;;;;;;;;4992976;28;20465;-49
2023/10/24 14:20:36;;;;;;;10.57;9.63;;;;;;;;;;4991891;28;20077;-51
2023/10/24 14:23:02;;;;;;;11.52;10.40;;;;;;;;;;4991798;28;20792;-46
2023/10/24 14:25:28;;;;;;;12.53;10.63;;;;;;;;;;4992984;28;20076;-47
2023/10/24 14:27:54;;;;;;;11.73;10.57;;;;;;;;;;4992862;28;20026;-48
2023/10/24 14:30:20;;;;;;;12.40;11.13;;;;;;;;;;4992929;28;20515;-47
2023/10/24 14:32:47;;;;;;;13.13;11.60;;;;;;;;;;4992814;28;20030;-47
2023/10/24 14:35:14;;;;;;;10.68;9.68;;;;;;;;;;4992925;28;20035;-48
2023/10/24 14:37:42;;;;;;;11.98;10.88;;;;;;;;;;4992667;28;20038;-47
2023/10/24 14:40:09;;;;;;;11.73;10.20;;;;;;;;;;4992693;28;20117;-47